sensor_id;sensor_type;location;lat;lon;timestamp;P1;durP1;ratioP1;P2;durP2;ratioP2
1779;SDS011;10019;46.670;14.260;2023-01-08T00:00:54;18.47;;;10.07;;
1779;SDS011;10019;46.670;14.260;2023-01-08T00:03:26;10.73;;;8.50;;
1779;SDS011;10019;46.670;14.260;2023-01-08T00:06:00;10.77;;;8.40;;
1779;SDS011;10019;46.670;14.260;2023-01-08T00:08:32;11.27;;;8.37;;
1779;SDS011;10019;46.670;14.260;2023-01-08T00:11:04;10.63;;;8.47;;
1779;SDS011;10019;46.670;14.260;2023-01-08T00:13:36;12.57;;;8.83;;
1779;SDS011;10019;46.670;14.260;2023-01-08T00:16:08;10.60;;;8.53;;
1779;SDS011;10019;46.670;14.260;2023-01-08T00:18:42;14.47;;;8.83;;
1779;SDS011;10019;46.670;14.260;2023-01-08T00:21:15;12.30;;;9.60;;
1779;SDS011;10019;46.670;14.260;2023-01-08T00:23:47;10.37;;;8.37;;
1779;SDS011;10019;46.670;14.260;2023-01-08T00:26:18;13.30;;;7.67;;
1779;SDS011;10019;46.670;14.260;2023-01-08T00:28:50;15.83;;;9.13;;
1779;SDS011;10019;46.670;14.260;2023-01-08T00:31:22;12.73;;;8.00;;
1779;SDS011;10019;46.670;14.260;2023-01-08T00:33:53;14.17;;;10.47;;
1779;SDS011;10019;46.670;14.260;2023-01-08T00:36:26;11.03;;;8.57;;
1779;SDS011;10019;46.670;14.260;2023-01-08T00:38:58;10.50;;;9.07;;
1779;SDS011;10019;46.670;14.260;2023-01-08T00:41:30;11.17;;;8.30;;
1779;SDS011;10019;46.670;14.260;2023-01-08T00:44:01;15.70;;;8.93;;
1779;SDS011;10019;46.670;14.260;2023-01-08T00:46:33;11.30;;;9.47;;
1779;SDS011;10019;46.670;14.260;2023-01-08T00:49:05;10.10;;;8.47;;
1779;SDS011;10019;46.670;14.260;2023-01-08T00:51:38;11.27;;;8.90;;
1779;SDS011;10019;46.670;14.260;2023-01-08T00:54:09;10.37;;;7.83;;
1779;SDS011;10019;46.670;14.260;2023-01-08T00:56:41;11.70;;;8.80;;
1779;SDS011;10019;46.670;14.260;2023-01-08T00:59:13;12.53;;;8.83;;
1779;SDS011;10019;46.670;14.260;2023-01-08T01:01:45;12.47;;;8.23;;
1779;SDS011;10019;46.670;14.260;2023-01-08T01:04:17;11.03;;;8.90;;
1779;SDS011;10019;46.670;14.260;2023-01-08T01:06:50;11.20;;;8.87;;
1779;SDS011;10019;46.670;14.260;2023-01-08T01:09:22;13.53;;;8.17;;
1779;SDS011;10019;46.670;14.260;2023-01-08T01:11:53;11.93;;;8.80;;
1779;SDS011;10019;46.670;14.260;2023-01-08T01:14:25;9.50;;;7.67;;
1779;SDS011;10019;46.670;14.260;2023-01-08T01:16:57;12.10;;;8.33;;
1779;SDS011;10019;46.670;14.260;2023-01-08T01:19:28;7.73;;;6.87;;
1779;SDS011;10019;46.670;14.260;2023-01-08T01:22:02;14.73;;;9.13;;
1779;SDS011;10019;46.670;14.260;2023-01-08T01:24:33;11.73;;;8.80;;
1779;SDS011;10019;46.670;14.260;2023-01-08T01:27:05;14.80;;;8.03;;
1779;SDS011;10019;46.670;14.260;2023-01-08T01:29:37;13.40;;;8.80;;
1779;SDS011;10019;46.670;14.260;2023-01-08T01:32:09;10.77;;;8.17;;
1779;SDS011;10019;46.670;14.260;2023-01-08T01:34:40;12.03;;;8.73;;
1779;SDS011;10019;46.670;14.260;2023-01-08T01:37:13;11.50;;;8.40;;
1779;SDS011;10019;46.670;14.260;2023-01-08T01:39:46;9.90;;;7.83;;
1779;SDS011;10019;46.670;14.260;2023-01-08T01:42:17;8.93;;;7.70;;
1779;SDS011;10019;46.670;14.260;2023-01-08T01:45:05;11.80;;;7.20;;
1779;SDS011;10019;46.670;14.260;2023-01-08T01:47:44;10.50;;;8.63;;
1779;SDS011;10019;46.670;14.260;2023-01-08T01:50:18;9.90;;;8.40;;
1779;SDS011;10019;46.670;14.260;2023-01-08T01:52:54;12.40;;;8.13;;
1779;SDS011;10019;46.670;14.260;2023-01-08T01:55:29;11.87;;;7.40;;
1779;SDS011;10019;46.670;14.260;2023-01-08T01:58:03;8.77;;;7.53;;
1779;SDS011;10019;46.670;14.260;2023-01-08T02:00:36;15.00;;;8.57;;
1779;SDS011;10019;46.670;14.260;2023-01-08T02:03:09;13.73;;;7.90;;
1779;SDS011;10019;46.670;14.260;2023-01-08T02:05:44;7.87;;;6.70;;
1779;SDS011;10019;46.670;14.260;2023-01-08T02:08:31;7.47;;;6.53;;
1779;SDS011;10019;46.670;14.260;2023-01-08T02:11:08;10.20;;;6.63;;
1779;SDS011;10019;46.670;14.260;2023-01-08T02:13:42;11.93;;;8.23;;
1779;SDS011;10019;46.670;14.260;2023-01-08T02:16:18;8.60;;;6.87;;
1779;SDS011;10019;46.670;14.260;2023-01-08T02:18:55;12.13;;;7.27;;
1779;SDS011;10019;46.670;14.260;2023-01-08T02:21:30;10.63;;;6.73;;
1779;SDS011;10019;46.670;14.260;2023-01-08T02:24:09;10.17;;;7.10;;
1779;SDS011;10019;46.670;14.260;2023-01-08T02:26:45;9.60;;;7.87;;
1779;SDS011;10019;46.670;14.260;2023-01-08T02:29:17;7.40;;;6.33;;
1779;SDS011;10019;46.670;14.260;2023-01-08T02:31:51;10.57;;;7.50;;
1779;SDS011;10019;46.670;14.260;2023-01-08T02:34:23;11.87;;;7.90;;
1779;SDS011;10019;46.670;14.260;2023-01-08T02:36:55;11.53;;;7.93;;
1779;SDS011;10019;46.670;14.260;2023-01-08T02:39:34;9.57;;;7.30;;
1779;SDS011;10019;46.670;14.260;2023-01-08T02:42:15;10.33;;;7.20;;
1779;SDS011;10019;46.670;14.260;2023-01-08T02:44:55;10.57;;;7.17;;
1779;SDS011;10019;46.670;14.260;2023-01-08T02:47:29;10.07;;;7.40;;
1779;SDS011;10019;46.670;14.260;2023-01-08T02:50:06;14.13;;;7.60;;
1779;SDS011;10019;46.670;14.260;2023-01-08T02:52:43;8.93;;;6.10;;
1779;SDS011;10019;46.670;14.260;2023-01-08T02:55:21;12.90;;;7.60;;
1779;SDS011;10019;46.670;14.260;2023-01-08T02:57:55;11.47;;;7.57;;
1779;SDS011;10019;46.670;14.260;2023-01-08T03:00:27;10.23;;;6.63;;
1779;SDS011;10019;46.670;14.260;2023-01-08T03:03:00;10.73;;;6.70;;
1779;SDS011;10019;46.670;14.260;2023-01-08T03:05:36;8.10;;;6.13;;
1779;SDS011;10019;46.670;14.260;2023-01-08T03:08:11;9.30;;;6.20;;
1779;SDS011;10019;46.670;14.260;2023-01-08T03:10:43;7.63;;;6.57;;
1779;SDS011;10019;46.670;14.260;2023-01-08T03:13:20;9.40;;;6.77;;
1779;SDS011;10019;46.670;14.260;2023-01-08T03:15:55;9.37;;;6.60;;
1779;SDS011;10019;46.670;14.260;2023-01-08T03:18:30;10.43;;;6.20;;
1779;SDS011;10019;46.670;14.260;2023-01-08T03:21:05;9.77;;;6.70;;
1779;SDS011;10019;46.670;14.260;2023-01-08T03:23:37;7.00;;;6.07;;
1779;SDS011;10019;46.670;14.260;2023-01-08T03:26:11;11.03;;;6.87;;
1779;SDS011;10019;46.670;14.260;2023-01-08T03:28:47;7.57;;;6.20;;
1779;SDS011;10019;46.670;14.260;2023-01-08T03:31:22;8.13;;;6.27;;
1779;SDS011;10019;46.670;14.260;2023-01-08T03:33:55;7.37;;;6.20;;
1779;SDS011;10019;46.670;14.260;2023-01-08T03:36:27;12.83;;;7.50;;
1779;SDS011;10019;46.670;14.260;2023-01-08T03:39:01;8.93;;;6.60;;
1779;SDS011;10019;46.670;14.260;2023-01-08T03:41:38;9.83;;;7.07;;
1779;SDS011;10019;46.670;14.260;2023-01-08T03:44:11;6.57;;;5.93;;
1779;SDS011;10019;46.670;14.260;2023-01-08T03:46:43;9.80;;;6.30;;
1779;SDS011;10019;46.670;14.260;2023-01-08T03:49:18;10.13;;;7.20;;
1779;SDS011;10019;46.670;14.260;2023-01-08T03:51:50;9.80;;;6.90;;
1779;SDS011;10019;46.670;14.260;2023-01-08T03:54:22;10.10;;;6.70;;
1779;SDS011;10019;46.670;14.260;2023-01-08T03:56:55;9.10;;;6.87;;
1779;SDS011;10019;46.670;14.260;2023-01-08T03:59:28;11.00;;;6.40;;
1779;SDS011;10019;46.670;14.260;2023-01-08T04:02:00;9.27;;;6.90;;
1779;SDS011;10019;46.670;14.260;2023-01-08T04:04:32;10.37;;;6.87;;
1779;SDS011;10019;46.670;14.260;2023-01-08T04:07:04;8.80;;;6.47;;
1779;SDS011;10019;46.670;14.260;2023-01-08T04:09:35;11.30;;;6.53;;
1779;SDS011;10019;46.670;14.260;2023-01-08T04:12:07;7.40;;;6.03;;
1779;SDS011;10019;46.670;14.260;2023-01-08T04:14:40;11.13;;;6.67;;
1779;SDS011;10019;46.670;14.260;2023-01-08T04:17:12;10.30;;;6.30;;
1779;SDS011;10019;46.670;14.260;2023-01-08T04:19:44;11.43;;;6.70;;
1779;SDS011;10019;46.670;14.260;2023-01-08T04:22:15;13.63;;;6.67;;
1779;SDS011;10019;46.670;14.260;2023-01-08T04:24:47;10.00;;;6.40;;
1779;SDS011;10019;46.670;14.260;2023-01-08T04:27:19;9.20;;;7.43;;
1779;SDS011;10019;46.670;14.260;2023-01-08T04:29:52;9.73;;;7.00;;
1779;SDS011;10019;46.670;14.260;2023-01-08T04:32:24;8.97;;;6.90;;
1779;SDS011;10019;46.670;14.260;2023-01-08T04:34:55;9.50;;;6.23;;
1779;SDS011;10019;46.670;14.260;2023-01-08T04:37:27;6.70;;;5.63;;
1779;SDS011;10019;46.670;14.260;2023-01-08T04:39:58;11.07;;;6.97;;
1779;SDS011;10019;46.670;14.260;2023-01-08T04:42:30;12.93;;;7.70;;
1779;SDS011;10019;46.670;14.260;2023-01-08T04:45:05;8.27;;;6.57;;
1779;SDS011;10019;46.670;14.260;2023-01-08T04:47:38;12.20;;;7.70;;
1779;SDS011;10019;46.670;14.260;2023-01-08T04:50:09;9.90;;;6.60;;
1779;SDS011;10019;46.670;14.260;2023-01-08T04:52:41;11.30;;;6.47;;
1779;SDS011;10019;46.670;14.260;2023-01-08T04:55:13;12.00;;;7.03;;
1779;SDS011;10019;46.670;14.260;2023-01-08T04:57:45;8.47;;;6.97;;
1779;SDS011;10019;46.670;14.260;2023-01-08T05:00:19;10.00;;;7.33;;
1779;SDS011;10019;46.670;14.260;2023-01-08T05:02:51;13.10;;;7.23;;
1779;SDS011;10019;46.670;14.260;2023-01-08T05:05:23;11.83;;;7.67;;
1779;SDS011;10019;46.670;14.260;2023-01-08T05:07:54;11.40;;;7.50;;
1779;SDS011;10019;46.670;14.260;2023-01-08T05:10:26;10.00;;;6.80;;
1779;SDS011;10019;46.670;14.260;2023-01-08T05:12:58;9.97;;;6.93;;
1779;SDS011;10019;46.670;14.260;2023-01-08T05:15:31;9.30;;;6.37;;
1779;SDS011;10019;46.670;14.260;2023-01-08T05:18:03;7.40;;;5.40;;
1779;SDS011;10019;46.670;14.260;2023-01-08T05:20:35;9.57;;;6.97;;
1779;SDS011;10019;46.670;14.260;2023-01-08T05:23:07;7.23;;;6.43;;
1779;SDS011;10019;46.670;14.260;2023-01-08T05:25:39;11.60;;;8.07;;
1779;SDS011;10019;46.670;14.260;2023-01-08T05:28:10;10.30;;;7.33;;
1779;SDS011;10019;46.670;14.260;2023-01-08T05:30:43;8.70;;;5.50;;
1779;SDS011;10019;46.670;14.260;2023-01-08T05:33:15;9.37;;;6.50;;
1779;SDS011;10019;46.670;14.260;2023-01-08T05:35:47;7.93;;;6.73;;
1779;SDS011;10019;46.670;14.260;2023-01-08T05:38:18;10.50;;;6.40;;
1779;SDS011;10019;46.670;14.260;2023-01-08T05:40:51;8.30;;;5.00;;
1779;SDS011;10019;46.670;14.260;2023-01-08T05:43:23;5.77;;;5.17;;
1779;SDS011;10019;46.670;14.260;2023-01-08T05:45:57;6.13;;;5.50;;
1779;SDS011;10019;46.670;14.260;2023-01-08T05:48:30;6.30;;;5.03;;
1779;SDS011;10019;46.670;14.260;2023-01-08T05:51:04;11.53;;;6.57;;
1779;SDS011;10019;46.670;14.260;2023-01-08T05:53:36;7.83;;;6.07;;
1779;SDS011;10019;46.670;14.260;2023-01-08T05:56:07;9.30;;;6.57;;
1779;SDS011;10019;46.670;14.260;2023-01-08T05:58:41;7.90;;;6.03;;
1779;SDS011;10019;46.670;14.260;2023-01-08T06:01:14;8.20;;;4.90;;
1779;SDS011;10019;46.670;14.260;2023-01-08T06:03:46;10.17;;;6.70;;
1779;SDS011;10019;46.670;14.260;2023-01-08T06:06:17;9.13;;;6.50;;
1779;SDS011;10019;46.670;14.260;2023-01-08T06:08:49;9.73;;;6.40;;
1779;SDS011;10019;46.670;14.260;2023-01-08T06:11:21;8.83;;;6.50;;
1779;SDS011;10019;46.670;14.260;2023-01-08T06:13:52;10.20;;;7.73;;
1779;SDS011;10019;46.670;14.260;2023-01-08T06:16:26;9.37;;;6.63;;
1779;SDS011;10019;46.670;14.260;2023-01-08T06:18:57;7.30;;;6.60;;
1779;SDS011;10019;46.670;14.260;2023-01-08T06:21:29;6.90;;;6.20;;
1779;SDS011;10019;46.670;14.260;2023-01-08T06:24:01;6.93;;;5.90;;
1779;SDS011;10019;46.670;14.260;2023-01-08T06:26:33;8.90;;;6.27;;
1779;SDS011;10019;46.670;14.260;2023-01-08T06:29:04;10.37;;;6.63;;
1779;SDS011;10019;46.670;14.260;2023-01-08T06:31:38;8.43;;;6.60;;
1779;SDS011;10019;46.670;14.260;2023-01-08T06:34:10;9.97;;;7.70;;
1779;SDS011;10019;46.670;14.260;2023-01-08T06:36:41;11.03;;;7.30;;
1779;SDS011;10019;46.670;14.260;2023-01-08T06:39:13;8.67;;;6.67;;
1779;SDS011;10019;46.670;14.260;2023-01-08T06:41:45;8.40;;;5.93;;
1779;SDS011;10019;46.670;14.260;2023-01-08T06:44:16;9.70;;;6.80;;
1779;SDS011;10019;46.670;14.260;2023-01-08T06:46:49;10.50;;;7.17;;
1779;SDS011;10019;46.670;14.260;2023-01-08T06:49:21;9.57;;;6.77;;
1779;SDS011;10019;46.670;14.260;2023-01-08T06:51:53;8.70;;;6.97;;
1779;SDS011;10019;46.670;14.260;2023-01-08T06:54:24;10.13;;;6.50;;
1779;SDS011;10019;46.670;14.260;2023-01-08T06:56:56;10.73;;;6.77;;
1779;SDS011;10019;46.670;14.260;2023-01-08T06:59:27;5.70;;;4.80;;
1779;SDS011;10019;46.670;14.260;2023-01-08T07:02:00;8.30;;;5.87;;
1779;SDS011;10019;46.670;14.260;2023-01-08T07:04:32;5.73;;;4.57;;
1779;SDS011;10019;46.670;14.260;2023-01-08T07:07:04;9.37;;;6.23;;
1779;SDS011;10019;46.670;14.260;2023-01-08T07:09:36;8.30;;;6.80;;
1779;SDS011;10019;46.670;14.260;2023-01-08T07:12:10;8.93;;;5.67;;
1779;SDS011;10019;46.670;14.260;2023-01-08T07:14:42;13.80;;;5.40;;
1779;SDS011;10019;46.670;14.260;2023-01-08T07:17:15;7.40;;;6.20;;
1779;SDS011;10019;46.670;14.260;2023-01-08T07:19:47;10.90;;;6.30;;
1779;SDS011;10019;46.670;14.260;2023-01-08T07:22:19;7.10;;;5.50;;
1779;SDS011;10019;46.670;14.260;2023-01-08T07:24:52;11.50;;;6.80;;
1779;SDS011;10019;46.670;14.260;2023-01-08T07:27:24;9.57;;;6.13;;
1779;SDS011;10019;46.670;14.260;2023-01-08T07:29:56;11.43;;;7.60;;
1779;SDS011;10019;46.670;14.260;2023-01-08T07:32:29;18.60;;;7.70;;
1779;SDS011;10019;46.670;14.260;2023-01-08T07:35:00;11.17;;;8.03;;
1779;SDS011;10019;46.670;14.260;2023-01-08T07:37:32;11.10;;;7.13;;
1779;SDS011;10019;46.670;14.260;2023-01-08T07:40:04;11.03;;;6.00;;
1779;SDS011;10019;46.670;14.260;2023-01-08T07:42:39;10.87;;;6.77;;
1779;SDS011;10019;46.670;14.260;2023-01-08T07:45:11;13.67;;;6.17;;
1779;SDS011;10019;46.670;14.260;2023-01-08T07:47:44;10.83;;;7.37;;
1779;SDS011;10019;46.670;14.260;2023-01-08T07:50:15;11.50;;;6.67;;
1779;SDS011;10019;46.670;14.260;2023-01-08T07:52:47;7.50;;;5.87;;
1779;SDS011;10019;46.670;14.260;2023-01-08T07:55:19;7.80;;;5.70;;
1779;SDS011;10019;46.670;14.260;2023-01-08T07:57:50;11.97;;;5.77;;
1779;SDS011;10019;46.670;14.260;2023-01-08T08:00:22;8.03;;;6.00;;
1779;SDS011;10019;46.670;14.260;2023-01-08T08:02:55;12.50;;;7.30;;
1779;SDS011;10019;46.670;14.260;2023-01-08T08:05:32;10.37;;;8.13;;
1779;SDS011;10019;46.670;14.260;2023-01-08T08:08:08;10.30;;;6.80;;
1779;SDS011;10019;46.670;14.260;2023-01-08T08:10:40;10.23;;;7.27;;
1779;SDS011;10019;46.670;14.260;2023-01-08T08:13:13;9.23;;;6.70;;
1779;SDS011;10019;46.670;14.260;2023-01-08T08:15:44;9.47;;;6.93;;
1779;SDS011;10019;46.670;14.260;2023-01-08T08:18:17;9.47;;;7.73;;
1779;SDS011;10019;46.670;14.260;2023-01-08T08:20:49;10.40;;;7.17;;
1779;SDS011;10019;46.670;14.260;2023-01-08T08:23:21;6.60;;;5.17;;
1779;SDS011;10019;46.670;14.260;2023-01-08T08:25:52;8.73;;;5.70;;
1779;SDS011;10019;46.670;14.260;2023-01-08T08:28:24;8.30;;;6.03;;
1779;SDS011;10019;46.670;14.260;2023-01-08T08:30:56;7.67;;;5.87;;
1779;SDS011;10019;46.670;14.260;2023-01-08T08:33:29;8.90;;;6.10;;
1779;SDS011;10019;46.670;14.260;2023-01-08T08:36:01;9.20;;;6.40;;
1779;SDS011;10019;46.670;14.260;2023-01-08T08:38:32;8.23;;;5.87;;
1779;SDS011;10019;46.670;14.260;2023-01-08T08:41:04;9.67;;;7.33;;
1779;SDS011;10019;46.670;14.260;2023-01-08T08:43:36;10.97;;;6.33;;
1779;SDS011;10019;46.670;14.260;2023-01-08T08:46:08;10.67;;;7.63;;
1779;SDS011;10019;46.670;14.260;2023-01-08T08:48:42;10.20;;;6.53;;
1779;SDS011;10019;46.670;14.260;2023-01-08T08:51:14;8.80;;;6.73;;
1779;SDS011;10019;46.670;14.260;2023-01-08T08:53:46;12.97;;;7.60;;
1779;SDS011;10019;46.670;14.260;2023-01-08T08:56:17;10.27;;;6.70;;
1779;SDS011;10019;46.670;14.260;2023-01-08T08:58:49;9.80;;;6.80;;
1779;SDS011;10019;46.670;14.260;2023-01-08T09:01:22;11.33;;;7.40;;
1779;SDS011;10019;46.670;14.260;2023-01-08T09:03:55;11.40;;;8.17;;
1779;SDS011;10019;46.670;14.260;2023-01-08T09:06:26;11.83;;;7.20;;
1779;SDS011;10019;46.670;14.260;2023-01-08T09:08:58;9.90;;;7.03;;
1779;SDS011;10019;46.670;14.260;2023-01-08T09:11:30;10.77;;;7.43;;
1779;SDS011;10019;46.670;14.260;2023-01-08T09:14:02;11.83;;;7.83;;
1779;SDS011;10019;46.670;14.260;2023-01-08T09:16:33;10.97;;;8.37;;
1779;SDS011;10019;46.670;14.260;2023-01-08T09:19:07;11.13;;;7.80;;
1779;SDS011;10019;46.670;14.260;2023-01-08T09:21:39;8.03;;;6.00;;
1779;SDS011;10019;46.670;14.260;2023-01-08T09:24:11;8.60;;;7.00;;
1779;SDS011;10019;46.670;14.260;2023-01-08T09:26:42;12.07;;;8.70;;
1779;SDS011;10019;46.670;14.260;2023-01-08T09:29:15;13.93;;;8.90;;
1779;SDS011;10019;46.670;14.260;2023-01-08T09:31:47;15.20;;;8.90;;
1779;SDS011;10019;46.670;14.260;2023-01-08T09:34:20;14.00;;;8.97;;
1779;SDS011;10019;46.670;14.260;2023-01-08T09:36:52;14.43;;;9.77;;
1779;SDS011;10019;46.670;14.260;2023-01-08T09:39:23;14.20;;;10.20;;
1779;SDS011;10019;46.670;14.260;2023-01-08T09:41:55;14.50;;;9.27;;
1779;SDS011;10019;46.670;14.260;2023-01-08T09:44:29;15.43;;;10.63;;
1779;SDS011;10019;46.670;14.260;2023-01-08T09:47:03;13.60;;;9.10;;
1779;SDS011;10019;46.670;14.260;2023-01-08T09:49:38;13.07;;;9.73;;
1779;SDS011;10019;46.670;14.260;2023-01-08T09:52:12;15.70;;;10.00;;
1779;SDS011;10019;46.670;14.260;2023-01-08T09:54:45;12.10;;;9.00;;
1779;SDS011;10019;46.670;14.260;2023-01-08T09:57:18;14.13;;;10.27;;
1779;SDS011;10019;46.670;14.260;2023-01-08T09:59:50;12.33;;;8.57;;
1779;SDS011;10019;46.670;14.260;2023-01-08T10:02:22;11.47;;;8.90;;
1779;SDS011;10019;46.670;14.260;2023-01-08T10:04:57;11.57;;;8.47;;
1779;SDS011;10019;46.670;14.260;2023-01-08T10:07:29;14.73;;;9.83;;
1779;SDS011;10019;46.670;14.260;2023-01-08T10:10:01;10.27;;;7.47;;
1779;SDS011;10019;46.670;14.260;2023-01-08T10:12:32;9.80;;;7.23;;
1779;SDS011;10019;46.670;14.260;2023-01-08T10:15:05;11.00;;;7.80;;
1779;SDS011;10019;46.670;14.260;2023-01-08T10:17:41;13.57;;;9.13;;
1779;SDS011;10019;46.670;14.260;2023-01-08T10:20:18;19.03;;;10.97;;
1779;SDS011;10019;46.670;14.260;2023-01-08T10:22:51;10.80;;;7.83;;
1779;SDS011;10019;46.670;14.260;2023-01-08T10:25:25;9.70;;;6.93;;
1779;SDS011;10019;46.670;14.260;2023-01-08T10:27:58;11.40;;;8.27;;
1779;SDS011;10019;46.670;14.260;2023-01-08T10:30:32;10.40;;;7.57;;
1779;SDS011;10019;46.670;14.260;2023-01-08T10:33:08;10.63;;;7.20;;
1779;SDS011;10019;46.670;14.260;2023-01-08T10:35:49;8.30;;;7.07;;
1779;SDS011;10019;46.670;14.260;2023-01-08T10:38:24;11.90;;;7.60;;
1779;SDS011;10019;46.670;14.260;2023-01-08T10:40:58;13.00;;;8.83;;
1779;SDS011;10019;46.670;14.260;2023-01-08T10:43:32;9.97;;;7.60;;
1779;SDS011;10019;46.670;14.260;2023-01-08T10:46:06;9.63;;;7.93;;
1779;SDS011;10019;46.670;14.260;2023-01-08T10:48:44;13.17;;;7.90;;
1779;SDS011;10019;46.670;14.260;2023-01-08T10:51:19;13.80;;;8.53;;
1779;SDS011;10019;46.670;14.260;2023-01-08T10:53:53;12.67;;;8.87;;
1779;SDS011;10019;46.670;14.260;2023-01-08T10:56:26;12.10;;;9.03;;
1779;SDS011;10019;46.670;14.260;2023-01-08T10:58:59;10.13;;;7.90;;
1779;SDS011;10019;46.670;14.260;2023-01-08T11:01:30;9.83;;;8.40;;
1779;SDS011;10019;46.670;14.260;2023-01-08T11:04:03;11.47;;;8.00;;
1779;SDS011;10019;46.670;14.260;2023-01-08T11:06:38;11.40;;;7.57;;
1779;SDS011;10019;46.670;14.260;2023-01-08T11:09:16;11.67;;;8.30;;
1779;SDS011;10019;46.670;14.260;2023-01-08T11:11:52;9.17;;;7.73;;
1779;SDS011;10019;46.670;14.260;2023-01-08T11:14:25;11.20;;;8.27;;
1779;SDS011;10019;46.670;14.260;2023-01-08T11:16:58;11.70;;;8.40;;
1779;SDS011;10019;46.670;14.260;2023-01-08T11:19:31;11.47;;;8.13;;
1779;SDS011;10019;46.670;14.260;2023-01-08T11:22:16;12.77;;;8.93;;
1779;SDS011;10019;46.670;14.260;2023-01-08T11:24:49;11.07;;;9.20;;
1779;SDS011;10019;46.670;14.260;2023-01-08T11:27:22;12.37;;;8.27;;
1779;SDS011;10019;46.670;14.260;2023-01-08T11:29:56;14.20;;;9.13;;
1779;SDS011;10019;46.670;14.260;2023-01-08T11:32:41;11.50;;;8.53;;
1779;SDS011;10019;46.670;14.260;2023-01-08T11:35:16;15.53;;;8.63;;
1779;SDS011;10019;46.670;14.260;2023-01-08T11:37:52;10.77;;;8.83;;
1779;SDS011;10019;46.670;14.260;2023-01-08T11:40:32;14.17;;;9.23;;
1779;SDS011;10019;46.670;14.260;2023-01-08T11:43:10;16.87;;;9.90;;
1779;SDS011;10019;46.670;14.260;2023-01-08T11:45:52;14.10;;;10.70;;
1779;SDS011;10019;46.670;14.260;2023-01-08T11:48:30;15.40;;;10.80;;
1779;SDS011;10019;46.670;14.260;2023-01-08T11:51:11;16.00;;;10.27;;
1779;SDS011;10019;46.670;14.260;2023-01-08T11:54:00;14.77;;;11.23;;
1779;SDS011;10019;46.670;14.260;2023-01-08T11:56:40;18.53;;;11.90;;
1779;SDS011;10019;46.670;14.260;2023-01-08T11:59:17;16.30;;;11.00;;
1779;SDS011;10019;46.670;14.260;2023-01-08T12:01:55;14.90;;;11.83;;
1779;SDS011;10019;46.670;14.260;2023-01-08T12:04:40;17.47;;;11.70;;
1779;SDS011;10019;46.670;14.260;2023-01-08T12:07:22;14.73;;;11.07;;
1779;SDS011;10019;46.670;14.260;2023-01-08T12:09:57;15.83;;;11.33;;
1779;SDS011;10019;46.670;14.260;2023-01-08T12:12:38;18.27;;;12.83;;
1779;SDS011;10019;46.670;14.260;2023-01-08T12:15:18;21.37;;;11.57;;
1779;SDS011;10019;46.670;14.260;2023-01-08T12:18:00;18.17;;;11.80;;
1779;SDS011;10019;46.670;14.260;2023-01-08T12:20:39;20.57;;;12.43;;
1779;SDS011;10019;46.670;14.260;2023-01-08T12:23:19;16.30;;;11.50;;
1779;SDS011;10019;46.670;14.260;2023-01-08T12:26:05;24.07;;;13.37;;
1779;SDS011;10019;46.670;14.260;2023-01-08T12:31:47;18.57;;;13.90;;
1779;SDS011;10019;46.670;14.260;2023-01-08T12:34:30;23.43;;;12.87;;
1779;SDS011;10019;46.670;14.260;2023-01-08T12:37:07;17.67;;;12.00;;
1779;SDS011;10019;46.670;14.260;2023-01-08T12:39:46;16.20;;;11.50;;
1779;SDS011;10019;46.670;14.260;2023-01-08T12:42:23;21.47;;;13.93;;
1779;SDS011;10019;46.670;14.260;2023-01-08T12:44:57;17.27;;;13.30;;
1779;SDS011;10019;46.670;14.260;2023-01-08T12:47:31;22.90;;;14.03;;
1779;SDS011;10019;46.670;14.260;2023-01-08T12:50:19;16.20;;;11.97;;
1779;SDS011;10019;46.670;14.260;2023-01-08T12:52:56;19.57;;;13.57;;
1779;SDS011;10019;46.670;14.260;2023-01-08T12:55:32;23.30;;;12.57;;
1779;SDS011;10019;46.670;14.260;2023-01-08T12:58:14;14.63;;;11.47;;
1779;SDS011;10019;46.670;14.260;2023-01-08T13:00:53;32.73;;;21.10;;
1779;SDS011;10019;46.670;14.260;2023-01-08T13:03:27;22.33;;;15.30;;
1779;SDS011;10019;46.670;14.260;2023-01-08T13:06:04;18.90;;;13.90;;
1779;SDS011;10019;46.670;14.260;2023-01-08T13:08:38;21.37;;;14.90;;
1779;SDS011;10019;46.670;14.260;2023-01-08T13:11:10;18.73;;;13.13;;
1779;SDS011;10019;46.670;14.260;2023-01-08T13:13:44;21.97;;;15.40;;
1779;SDS011;10019;46.670;14.260;2023-01-08T13:16:17;22.57;;;15.87;;
1779;SDS011;10019;46.670;14.260;2023-01-08T13:18:51;17.90;;;13.27;;
1779;SDS011;10019;46.670;14.260;2023-01-08T13:21:30;19.03;;;13.70;;
1779;SDS011;10019;46.670;14.260;2023-01-08T13:24:20;21.70;;;15.60;;
1779;SDS011;10019;46.670;14.260;2023-01-08T13:26:56;21.00;;;14.33;;
1779;SDS011;10019;46.670;14.260;2023-01-08T13:29:41;18.20;;;13.73;;
1779;SDS011;10019;46.670;14.260;2023-01-08T13:32:23;22.17;;;13.17;;
1779;SDS011;10019;46.670;14.260;2023-01-08T13:35:00;18.97;;;12.70;;
1779;SDS011;10019;46.670;14.260;2023-01-08T13:37:33;20.97;;;14.37;;
1779;SDS011;10019;46.670;14.260;2023-01-08T13:40:33;20.07;;;14.60;;
1779;SDS011;10019;46.670;14.260;2023-01-08T13:43:10;20.00;;;12.70;;
1779;SDS011;10019;46.670;14.260;2023-01-08T13:45:44;16.40;;;11.83;;
1779;SDS011;10019;46.670;14.260;2023-01-08T13:48:22;19.80;;;11.23;;
1779;SDS011;10019;46.670;14.260;2023-01-08T13:50:55;20.27;;;13.27;;
1779;SDS011;10019;46.670;14.260;2023-01-08T13:53:27;18.50;;;13.40;;
1779;SDS011;10019;46.670;14.260;2023-01-08T13:55:59;23.37;;;14.50;;
1779;SDS011;10019;46.670;14.260;2023-01-08T13:58:32;18.97;;;13.87;;
1779;SDS011;10019;46.670;14.260;2023-01-08T14:01:08;19.47;;;12.23;;
1779;SDS011;10019;46.670;14.260;2023-01-08T14:03:43;19.90;;;12.73;;
1779;SDS011;10019;46.670;14.260;2023-01-08T14:06:16;16.70;;;11.10;;
1779;SDS011;10019;46.670;14.260;2023-01-08T14:08:49;16.30;;;12.10;;
1779;SDS011;10019;46.670;14.260;2023-01-08T14:11:22;16.60;;;11.87;;
1779;SDS011;10019;46.670;14.260;2023-01-08T14:13:55;17.03;;;11.60;;
1779;SDS011;10019;46.670;14.260;2023-01-08T14:16:29;20.83;;;14.90;;
1779;SDS011;10019;46.670;14.260;2023-01-08T14:19:02;21.27;;;14.17;;
1779;SDS011;10019;46.670;14.260;2023-01-08T14:21:35;23.20;;;16.87;;
1779;SDS011;10019;46.670;14.260;2023-01-08T14:24:10;21.23;;;15.13;;
1779;SDS011;10019;46.670;14.260;2023-01-08T14:26:43;19.87;;;14.17;;
1779;SDS011;10019;46.670;14.260;2023-01-08T14:29:22;16.47;;;12.20;;
1779;SDS011;10019;46.670;14.260;2023-01-08T14:31:57;16.93;;;12.47;;
1779;SDS011;10019;46.670;14.260;2023-01-08T14:34:30;15.30;;;12.30;;
1779;SDS011;10019;46.670;14.260;2023-01-08T14:37:02;15.00;;;10.93;;
1779;SDS011;10019;46.670;14.260;2023-01-08T14:39:35;18.40;;;12.33;;
1779;SDS011;10019;46.670;14.260;2023-01-08T14:42:07;17.00;;;11.17;;
1779;SDS011;10019;46.670;14.260;2023-01-08T14:45:01;17.47;;;11.10;;
1779;SDS011;10019;46.670;14.260;2023-01-08T14:47:36;13.20;;;10.37;;
1779;SDS011;10019;46.670;14.260;2023-01-08T14:50:14;14.63;;;10.60;;
1779;SDS011;10019;46.670;14.260;2023-01-08T14:52:48;31.40;;;16.47;;
1779;SDS011;10019;46.670;14.260;2023-01-08T14:55:20;28.20;;;17.37;;
1779;SDS011;10019;46.670;14.260;2023-01-08T14:57:53;13.60;;;10.53;;
1779;SDS011;10019;46.670;14.260;2023-01-08T15:00:26;15.40;;;10.80;;
1779;SDS011;10019;46.670;14.260;2023-01-08T15:03:00;14.63;;;10.20;;
1779;SDS011;10019;46.670;14.260;2023-01-08T15:05:32;13.87;;;10.07;;
1779;SDS011;10019;46.670;14.260;2023-01-08T15:08:20;28.60;;;17.30;;
1779;SDS011;10019;46.670;14.260;2023-01-08T15:10:56;22.67;;;12.77;;
1779;SDS011;10019;46.670;14.260;2023-01-08T15:13:29;16.70;;;11.50;;
1779;SDS011;10019;46.670;14.260;2023-01-08T15:16:06;20.03;;;13.37;;
1779;SDS011;10019;46.670;14.260;2023-01-08T15:18:41;15.37;;;11.40;;